Ivaipora, Brazil
Current Conditions -  °F | °C
As of 7:00 PM on Thursday 23 Oct 2014 (Local Time) from SBMG Reporting Station
Few Clouds Few Clouds  
Wind Chill: 86°   Ceiling: Unl
Heat Index: 87°   Visibility: 6mi
Dew Point: 63°   Wind: 5mph
Humidity: 45%   Direction: 280°W
Pressure: 29.88"   Gusts: NA
Location:  24.25°S, 51.68°W
Report Text: SBMG 232100Z 28004KT 9999 FEW040 30/17 Q1012
Loading
Personal Weather Stations






























Interactive Weather Map
Tropical Storm Tracking
New forecast layout! Learn more

10-Day Weather Forecast

Advertisements
Track Severe Weather on mobile